createdAt,value
2022-10-28T00:00:37.523Z,3.13
2022-10-28T00:05:40.957Z,3.20
2022-10-28T00:10:43.254Z,3.00
2022-10-28T00:15:45.276Z,3.23
2022-10-28T00:20:48.777Z,3.30
2022-10-28T00:25:50.804Z,3.33
2022-10-28T00:30:52.422Z,2.73
2022-10-28T00:35:55.764Z,2.73
2022-10-28T00:40:57.692Z,2.90
2022-10-28T00:45:59.839Z,2.63
2022-10-28T00:51:03.541Z,2.63
2022-10-28T00:56:07.409Z,3.10
2022-10-28T01:01:09.351Z,3.70
2022-10-28T01:06:13.349Z,2.97
2022-10-28T01:11:40.840Z,3.40
2022-10-28T01:16:57.469Z,2.77
2022-10-28T01:22:10.814Z,3.70
2022-10-28T01:27:43.687Z,3.07
2022-10-28T01:32:58.144Z,2.77
2022-10-28T01:38:27.367Z,2.90
2022-10-28T01:43:34.812Z,2.90
2022-10-28T01:48:45.483Z,2.90
2022-10-28T01:53:51.699Z,3.07
2022-10-28T01:58:56.097Z,3.50
2022-10-28T02:03:59.724Z,3.30
2022-10-28T02:09:12.591Z,3.13
2022-10-28T02:14:48.392Z,4.37
2022-10-28T02:20:00.969Z,3.70
2022-10-28T02:25:08.227Z,4.10
2022-10-28T02:30:15.197Z,4.13
2022-10-28T02:35:23.281Z,4.23
2022-10-28T02:40:28.148Z,4.27
2022-10-28T02:45:35.292Z,3.87
2022-10-28T02:50:43.976Z,3.87
2022-10-28T02:55:50.993Z,3.80
2022-10-28T03:00:53.320Z,4.03
2022-10-28T03:05:56.767Z,4.10
2022-10-28T03:10:58.651Z,3.30
2022-10-28T03:16:00.646Z,3.33
2022-10-28T03:21:04.170Z,3.50
2022-10-28T03:26:07.318Z,4.80
2022-10-28T03:31:09.364Z,3.37
2022-10-28T03:36:12.892Z,3.87
2022-10-28T03:41:14.703Z,3.90
2022-10-28T03:46:17.163Z,3.87
2022-10-28T03:51:20.728Z,3.53
2022-10-28T03:56:22.922Z,3.63
2022-10-28T04:01:25.127Z,3.53
2022-10-28T04:06:28.523Z,3.43
2022-10-28T04:11:30.529Z,4.67
2022-10-28T04:16:32.159Z,3.90
2022-10-28T04:21:35.246Z,3.90
2022-10-28T04:26:37.273Z,3.80
2022-10-28T04:31:39.303Z,3.47
2022-10-28T04:36:42.739Z,4.10
2022-10-28T04:41:44.904Z,4.03
2022-10-28T04:46:47.315Z,4.50
2022-10-28T04:51:50.721Z,4.27
2022-10-28T04:56:53.914Z,4.23
2022-10-28T05:01:56.264Z,5.03
2022-10-28T05:06:59.710Z,4.10
2022-10-28T05:12:01.770Z,4.67
2022-10-28T05:17:03.819Z,4.10
2022-10-28T05:22:07.146Z,4.17
2022-10-28T05:27:09.383Z,4.37
2022-10-28T05:32:11.583Z,4.23
2022-10-28T05:37:15.210Z,4.60
2022-10-28T05:42:17.309Z,4.90
2022-10-28T05:47:19.657Z,5.30
2022-10-28T05:52:23.168Z,5.27
2022-10-28T05:57:24.788Z,5.13
2022-10-28T06:02:26.945Z,5.07
2022-10-28T06:07:30.248Z,4.93
2022-10-28T06:12:30.696Z,5.57
2022-10-28T06:17:32.409Z,5.70
2022-10-28T06:22:35.746Z,6.20
2022-10-28T06:27:37.785Z,5.60
2022-10-28T06:32:39.877Z,6.07
2022-10-28T06:37:43.555Z,6.43
2022-10-28T06:42:45.418Z,7.90
2022-10-28T06:47:48.821Z,7.30
2022-10-28T06:52:52.646Z,6.53
2022-10-28T06:57:58.723Z,6.30
2022-10-28T07:03:01.155Z,6.57
2022-10-28T07:08:05.550Z,6.93
2022-10-28T07:13:07.405Z,6.73
2022-10-28T07:18:09.594Z,6.50
2022-10-28T07:23:13.005Z,6.07
2022-10-28T07:28:15.026Z,5.70
2022-10-28T07:33:17.850Z,6.00
2022-10-28T07:38:20.994Z,5.60
2022-10-28T07:43:23.100Z,4.67
2022-10-28T07:48:25.489Z,5.33
2022-10-28T07:53:29.538Z,4.30
2022-10-28T07:58:31.909Z,4.23
2022-10-28T08:03:38.625Z,4.50
2022-10-28T08:08:42.839Z,3.57
2022-10-28T08:13:45.359Z,3.43
2022-10-28T08:18:47.448Z,3.00
2022-10-28T08:23:50.879Z,2.90
2022-10-28T08:28:53.102Z,3.17
2022-10-28T08:33:54.861Z,3.47
2022-10-28T08:38:58.348Z,3.00
2022-10-28T08:44:27.158Z,3.23
2022-10-28T08:49:33.245Z,2.87
2022-10-28T08:54:43.125Z,3.00
2022-10-28T08:59:46.507Z,2.87
2022-10-28T09:04:51.696Z,3.20
2022-10-28T09:09:56.105Z,3.00
2022-10-28T09:15:12.301Z,2.30
2022-10-28T09:20:19.381Z,2.43
2022-10-28T09:25:28.400Z,2.73
2022-10-28T09:30:40.488Z,2.47
2022-10-28T09:35:44.770Z,2.00
2022-10-28T09:40:52.875Z,1.97
2022-10-28T09:46:00.481Z,2.03
2022-10-28T09:51:02.975Z,1.70
2022-10-28T10:01:15.659Z,2.00
2022-10-28T10:06:20.243Z,1.73
2022-10-28T10:11:30.861Z,2.00
2022-10-28T10:16:40.897Z,1.90
2022-10-28T10:21:47.815Z,1.90
2022-10-28T10:26:51.381Z,2.13
2022-10-28T10:32:16.855Z,2.42
2022-10-28T10:37:21.440Z,2.08
2022-10-28T10:42:24.895Z,2.28
2022-10-28T10:47:27.175Z,1.80
2022-10-28T10:52:29.453Z,1.58
2022-10-28T10:57:34.548Z,1.88
2022-10-28T11:02:39.212Z,2.28
2022-10-28T11:07:47.170Z,2.00
2022-10-28T11:12:54.582Z,2.38
2022-10-28T11:17:59.745Z,2.25
2022-10-28T11:23:17.593Z,2.67
2022-10-28T11:28:34.374Z,2.22
2022-10-28T11:33:44.861Z,1.90
2022-10-28T11:39:15.966Z,2.05
2022-10-28T11:44:33.119Z,3.25
2022-10-28T11:50:01.709Z,2.20
2022-10-28T11:55:18.312Z,2.38
2022-10-28T12:00:41.134Z,1.90
2022-10-28T12:05:47.639Z,1.90
2022-10-28T12:10:59.365Z,1.90
2022-10-28T12:16:11.450Z,2.05
2022-10-28T12:21:20.609Z,2.13
2022-10-28T12:26:35.824Z,1.90
2022-10-28T12:31:45.075Z,1.90
2022-10-28T12:36:50.725Z,2.00
2022-10-28T12:42:00.298Z,1.77
2022-10-28T12:47:16.939Z,1.90
2022-10-28T12:52:32.064Z,2.10
2022-10-28T12:57:36.949Z,1.75
2022-10-28T13:02:47.435Z,2.10
2022-10-28T13:08:17.566Z,1.55
2022-10-28T13:13:43.758Z,1.75
2022-10-28T13:19:15.663Z,1.90
2022-10-28T13:24:21.621Z,2.58
2022-10-28T13:29:26.172Z,1.60
2022-10-28T13:34:34.112Z,2.05
2022-10-28T13:39:43.629Z,1.80
2022-10-28T13:44:50.086Z,1.63
2022-10-28T13:50:40.948Z,1.80
2022-10-28T13:55:45.140Z,1.85
2022-10-28T14:00:50.494Z,1.92
2022-10-28T14:05:57.464Z,1.95
2022-10-28T14:11:04.369Z,2.10
2022-10-28T14:16:21.919Z,2.00
2022-10-28T14:21:24.461Z,1.92
2022-10-28T14:26:27.437Z,1.63
2022-10-28T14:31:43.211Z,1.70
2022-10-28T14:36:53.518Z,1.60
2022-10-28T14:42:22.735Z,1.88
2022-10-28T14:47:44.174Z,1.75
2022-10-28T14:52:48.085Z,1.90
2022-10-28T14:57:51.464Z,1.92
2022-10-28T15:02:55.306Z,1.70
2022-10-28T15:08:03.084Z,2.20
2022-10-28T15:13:06.936Z,2.50
2022-10-28T15:18:22.066Z,2.13
2022-10-28T15:23:24.614Z,1.65
2022-10-28T15:28:27.817Z,2.22
2022-10-28T15:33:30.909Z,1.60
2022-10-28T15:38:38.405Z,1.42
2022-10-28T15:43:41.849Z,2.42
2022-10-28T15:48:44.107Z,1.90
2022-10-28T15:53:46.519Z,1.70
2022-10-28T15:59:03.470Z,2.10
2022-10-28T16:04:06.349Z,1.70
2022-10-28T16:09:18.076Z,2.13
2022-10-28T16:14:32.067Z,2.53
2022-10-28T16:19:37.936Z,2.20
2022-10-28T16:24:40.027Z,2.30
2022-10-28T16:29:43.407Z,2.20
2022-10-28T16:34:45.543Z,2.10
2022-10-28T16:39:47.307Z,2.33
2022-10-28T16:44:51.185Z,2.33
2022-10-28T16:49:57.248Z,2.50
2022-10-28T16:55:00.430Z,2.90
2022-10-28T17:00:04.643Z,2.90
2022-10-28T17:05:14.851Z,2.50
2022-10-28T17:10:18.211Z,2.00
2022-10-28T17:15:21.233Z,2.30
2022-10-28T17:20:23.312Z,2.90
2022-10-28T17:25:25.270Z,2.63
2022-10-28T17:30:28.483Z,2.30
2022-10-28T17:35:30.430Z,2.60
2022-10-28T17:40:32.466Z,2.60
2022-10-28T17:45:36.033Z,2.87
2022-10-28T17:50:38.281Z,2.50
2022-10-28T17:55:40.329Z,2.50
2022-10-28T18:00:43.755Z,2.50
2022-10-28T18:05:45.782Z,2.90
2022-10-28T18:10:51.800Z,2.90
2022-10-28T18:15:54.868Z,2.87
2022-10-28T18:20:57.165Z,2.47
2022-10-28T18:25:59.333Z,2.97
2022-10-28T18:31:03.335Z,2.70
2022-10-28T18:36:07.338Z,2.70
2022-10-28T18:41:11.451Z,3.50
2022-10-28T18:46:15.167Z,3.10
2022-10-28T18:51:17.366Z,2.83
2022-10-28T18:56:21.056Z,3.20
2022-10-28T19:01:26.330Z,2.43
2022-10-28T19:06:30.897Z,3.27
2022-10-28T19:11:34.156Z,2.77
2022-10-28T19:16:37.771Z,3.57
2022-10-28T19:21:39.975Z,3.17
2022-10-28T19:26:42.203Z,2.70
2022-10-28T19:31:45.842Z,3.10
2022-10-28T19:36:47.810Z,3.27
2022-10-28T19:41:49.679Z,3.07
2022-10-28T19:46:53.160Z,4.03
2022-10-28T19:51:55.398Z,4.33
2022-10-28T19:56:57.148Z,3.50
2022-10-28T20:02:00.380Z,3.23
2022-10-28T20:07:02.345Z,3.50
2022-10-28T20:12:04.814Z,4.40
2022-10-28T20:17:08.432Z,3.90
2022-10-28T20:22:10.240Z,3.10
2022-10-28T20:27:12.343Z,3.57
2022-10-28T20:32:16.941Z,3.40
2022-10-28T20:37:19.044Z,3.20
2022-10-28T20:42:21.521Z,3.03
2022-10-28T20:47:24.653Z,3.27
2022-10-28T20:52:26.656Z,3.47
2022-10-28T20:57:28.313Z,3.00
2022-10-28T21:02:31.464Z,2.97
2022-10-28T21:07:33.451Z,3.43
2022-10-28T21:12:35.242Z,3.27
2022-10-28T21:17:38.360Z,3.60
2022-10-28T21:22:40.570Z,3.10
2022-10-28T21:27:42.979Z,3.07
2022-10-28T21:32:46.294Z,2.53
2022-10-28T21:37:48.269Z,2.90
2022-10-28T21:42:50.350Z,3.60
2022-10-28T21:47:55.895Z,3.27
2022-10-28T21:52:59.719Z,3.50
2022-10-28T21:58:04.173Z,2.87
2022-10-28T22:03:07.755Z,3.00
2022-10-28T22:08:10.060Z,3.20
2022-10-28T22:13:12.196Z,3.57
2022-10-28T22:18:15.429Z,4.70
2022-10-28T22:23:17.564Z,3.50
2022-10-28T22:28:19.658Z,3.17
2022-10-28T22:33:23.244Z,3.07
2022-10-28T22:38:25.937Z,3.83
2022-10-28T22:43:27.932Z,3.10
2022-10-28T22:48:31.841Z,3.30
2022-10-28T22:53:33.792Z,3.80
2022-10-28T22:58:35.900Z,3.30
2022-10-28T23:03:41.134Z,3.73
2022-10-28T23:08:44.545Z,3.80
2022-10-28T23:13:49.724Z,2.90
2022-10-28T23:18:53.246Z,3.60
2022-10-28T23:23:56.858Z,3.60
2022-10-28T23:28:59.985Z,3.57
2022-10-28T23:34:03.348Z,3.10
2022-10-28T23:39:05.372Z,3.63
2022-10-28T23:44:07.524Z,3.30
2022-10-28T23:49:10.888Z,2.80
2022-10-28T23:54:12.706Z,3.47
2022-10-28T23:59:14.861Z,3.40
